Fanoula — A8NE6 — position and weather

sailwx.info

Track history (hours):
 
Tides and Currents Weather Stations Pressure Air Temp Water Temp Dewpoint Dewpoint Depression Visibility Wind Speed Wind Dir Waves Ship Positions

Fanoula

Last reported at 2018-Jan-07 08:45 UTC. Time now 2018-Jan-19 07:22 UTC.
Position N 21°44' E 120°07'.
Warning: this ship's position is 11 days out of date.

Length 190 m; draft 9.8 m.

Type: Cargo ship. MMSI: 636013467.

Date/timePositionNaut miles runAvg speedWind from/ knotsBaromVisibWave heightAir tempDewpointWater temp
2018-Jan-07 08:45N 21°44' E 120°07'1112.3
2018-Jan-07 07:52N 21°43' E 120°18'512.9
2018-Jan-07 07:28N 21°42' E 120°24'3611.4
2018-Jan-07 04:20N 21°51' E 121°01'1114.2
2018-Jan-07 03:33N 21°59' E 121°09'213.9
2018-Jan-07 03:24N 22°01' E 121°10'512.6
2018-Jan-07 03:00N 22°05' E 121°14'612.3
2018-Jan-07 02:30N 22°09' E 121°18'610.8
2018-Jan-07 01:58N 22°14' E 121°22'1711.7
2018-Jan-07 00:30N 22°27' E 121°34'612.2
2018-Jan-07 00:00N 22°32' E 121°38'712.0
2018-Jan-06 23:27N 22°37' E 121°42'612.0
2018-Jan-06 22:59N 22°42' E 121°45'612.0
2018-Jan-06 22:28N 22°47' E 121°48'611.8
2018-Jan-06 21:59N 22°53' E 121°50'611.9
2018-Jan-06 21:31N 22°58' E 121°53'1912.1
2018-Jan-06 19:58N 23°15' E 122°02'3812.4
2018-Jan-06 16:56N 23°49' E 122°20'512.1
2018-Jan-06 16:31N 23°53' E 122°22'611.9
2018-Jan-06 16:00N 23°59' E 122°25'611.8
2018-Jan-06 15:31N 24°04' E 122°28'611.6
2018-Jan-06 15:01N 24°09' E 122°30'611.5
2018-Jan-06 14:31N 24°14' E 122°33'611.1
2018-Jan-06 14:01N 24°19' E 122°36'510.9
2018-Jan-06 13:30N 24°24' E 122°38'510.7
2018-Jan-06 13:00N 24°29' E 122°41'510.3
2018-Jan-06 12:31N 24°34' E 122°43'611.1
2018-Jan-06 12:01N 24°36' E 122°49'611.3
2018-Jan-06 11:31N 24°39' E 122°54'611.4
2018-Jan-06 11:01N 24°41' E 123°00'611.8
2018-Jan-06 10:31N 24°44' E 123°06'612.5
2018-Jan-06 10:01N 24°47' E 123°12'612.4
2018-Jan-06 09:31N 24°49' E 123°18'612.1
2018-Jan-06 09:01N 24°52' E 123°24'612.0
2018-Jan-06 08:30N 24°55' E 123°30'611.6
2018-Jan-06 08:01N 24°58' E 123°35'  
2018-Jan-02 18:50N 33°57' E 138°60'9 8.9
2018-Jan-02 17:47N 34°04' E 139°07'3 9.3
2018-Jan-02 17:27N 34°06' E 139°10'5 9.6
2018-Jan-02 16:56N 34°09' E 139°15'7 9.1
2018-Jan-02 16:13N 34°12' E 139°22'8 8.3
2018-Jan-02 15:15N 34°16' E 139°30'3 8.6
2018-Jan-02 14:57N 34°18' E 139°33'4 8.5
2018-Jan-02 14:30N 34°20' E 139°36'4 7.7
2018-Jan-02 14:00N 34°22' E 139°40'7 6.8
2018-Jan-02 12:57N 34°26' E 139°48'3 7.3
2018-Jan-02 12:30N 34°27' E 139°51'4 7.9
2018-Jan-02 11:59N 34°30' E 139°55'23 9.5
2018-Jan-02 09:30N 34°42' E 140°19'  
Track history (hours):
 
Tides and Currents Weather Stations Pressure Air Temp Water Temp Dewpoint Dewpoint Depression Visibility Wind Speed Wind Dir Waves Ship Positions

Fanoula

Last reported at 2018-Jan-07 08:45 UTC. Time now 2018-Jan-19 07:22 UTC.
Position N 21°44' E 120°07'.
Warning: this ship's position is 11 days out of date.

Length 190 m; draft 9.8 m.

Type: Cargo ship. MMSI: 636013467.

Date/timePositionNaut miles runAvg speedWind from/ knotsBaromVisibWave heightAir tempDewpointWater temp
2018-Jan-07 08:45N 21°44' E 120°07'1112.3
2018-Jan-07 07:52N 21°43' E 120°18'512.9
2018-Jan-07 07:28N 21°42' E 120°24'3611.4
2018-Jan-07 04:20N 21°51' E 121°01'1114.2
2018-Jan-07 03:33N 21°59' E 121°09'213.9
2018-Jan-07 03:24N 22°01' E 121°10'512.6
2018-Jan-07 03:00N 22°05' E 121°14'612.3
2018-Jan-07 02:30N 22°09' E 121°18'610.8
2018-Jan-07 01:58N 22°14' E 121°22'1711.7
2018-Jan-07 00:30N 22°27' E 121°34'612.2
2018-Jan-07 00:00N 22°32' E 121°38'712.0
2018-Jan-06 23:27N 22°37' E 121°42'612.0
2018-Jan-06 22:59N 22°42' E 121°45'612.0
2018-Jan-06 22:28N 22°47' E 121°48'611.8
2018-Jan-06 21:59N 22°53' E 121°50'611.9
2018-Jan-06 21:31N 22°58' E 121°53'1912.1
2018-Jan-06 19:58N 23°15' E 122°02'3812.4
2018-Jan-06 16:56N 23°49' E 122°20'512.1
2018-Jan-06 16:31N 23°53' E 122°22'611.9
2018-Jan-06 16:00N 23°59' E 122°25'611.8
2018-Jan-06 15:31N 24°04' E 122°28'611.6
2018-Jan-06 15:01N 24°09' E 122°30'611.5
2018-Jan-06 14:31N 24°14' E 122°33'611.1
2018-Jan-06 14:01N 24°19' E 122°36'510.9
2018-Jan-06 13:30N 24°24' E 122°38'510.7
2018-Jan-06 13:00N 24°29' E 122°41'510.3
2018-Jan-06 12:31N 24°34' E 122°43'611.1
2018-Jan-06 12:01N 24°36' E 122°49'611.3
2018-Jan-06 11:31N 24°39' E 122°54'611.4
2018-Jan-06 11:01N 24°41' E 123°00'611.8
2018-Jan-06 10:31N 24°44' E 123°06'612.5
2018-Jan-06 10:01N 24°47' E 123°12'612.4
2018-Jan-06 09:31N 24°49' E 123°18'612.1
2018-Jan-06 09:01N 24°52' E 123°24'612.0
2018-Jan-06 08:30N 24°55' E 123°30'611.6
2018-Jan-06 08:01N 24°58' E 123°35'  
2018-Jan-02 18:50N 33°57' E 138°60'9 8.9
2018-Jan-02 17:47N 34°04' E 139°07'3 9.3
2018-Jan-02 17:27N 34°06' E 139°10'5 9.6
2018-Jan-02 16:56N 34°09' E 139°15'7 9.1
2018-Jan-02 16:13N 34°12' E 139°22'8 8.3
2018-Jan-02 15:15N 34°16' E 139°30'3 8.6
2018-Jan-02 14:57N 34°18' E 139°33'4 8.5
2018-Jan-02 14:30N 34°20' E 139°36'4 7.7
2018-Jan-02 14:00N 34°22' E 139°40'7 6.8
2018-Jan-02 12:57N 34°26' E 139°48'3 7.3
2018-Jan-02 12:30N 34°27' E 139°51'4 7.9
2018-Jan-02 11:59N 34°30' E 139°55'23 9.5
2018-Jan-02 09:30N 34°42' E 140°19'  

Dump ship's entire track history